Time,TemperatureF,DewpointF,PressureIn,WindDirection,WindDirectionDegrees,WindSpeedMPH,WindSpeedGustMPH,Humidity,HourlyPrecipIn,Conditions,Clouds,dailyrainin,SoftwareType,DateUTC
2013-02-15 00:01:00,17.0,13.0,-100.00,West,264,16.0,21.0,83,0.00,,,-99.99,,2013-02-15 07:01:00,
2013-02-15 00:11:00,18.0,13.0,-100.00,WSW,257,16.0,21.0,81,0.00,,,-99.99,,2013-02-15 07:11:00,
2013-02-15 00:21:00,17.0,12.0,-100.00,WSW,256,16.0,22.0,80,0.00,,,-99.99,,2013-02-15 07:21:00,
2013-02-15 00:31:00,17.0,11.0,-100.00,WSW,253,16.0,22.0,78,0.00,,,-99.99,,2013-02-15 07:31:00,
2013-02-15 00:41:00,17.0,11.0,-100.00,WSW,256,16.0,21.0,78,0.00,,,-99.99,,2013-02-15 07:41:00,
2013-02-15 00:52:00,17.0,11.0,-100.00,WSW,258,17.0,21.0,78,0.00,,,-99.99,,2013-02-15 07:52:00,
2013-02-15 01:01:00,17.0,11.0,-100.00,West,264,16.0,22.0,76,0.00,,,-99.99,,2013-02-15 08:01:00,
2013-02-15 01:11:00,18.0,11.0,-100.00,West,274,16.0,22.0,75,0.00,,,-99.99,,2013-02-15 08:11:00,
2013-02-15 01:21:00,17.0,11.0,-100.00,West,278,15.0,21.0,76,0.00,,,-99.99,,2013-02-15 08:21:00,
2013-02-15 01:31:00,18.0,12.0,-100.00,West,277,15.0,22.0,77,0.00,,,-99.99,,2013-02-15 08:31:00,
2013-02-15 01:41:00,18.0,12.0,-100.00,West,268,16.0,22.0,77,0.00,,,-99.99,,2013-02-15 08:41:00,
2013-02-15 01:52:00,18.0,12.0,-100.00,West,267,17.0,24.0,77,0.00,,,-99.99,,2013-02-15 08:52:00,
2013-02-15 02:01:00,17.0,11.0,-100.00,West,272,16.0,22.0,76,0.00,,,-99.99,,2013-02-15 09:01:00,
2013-02-15 02:12:00,17.0,11.0,-100.00,West,271,16.0,23.0,77,0.00,,,-99.99,,2013-02-15 09:12:00,
2013-02-15 02:21:00,17.0,11.0,-100.00,West,264,18.0,26.0,78,0.00,,,-99.99,,2013-02-15 09:21:00,
2013-02-15 02:32:00,17.0,11.0,-100.00,West,263,20.0,27.0,79,0.00,,,-99.99,,2013-02-15 09:32:00,
2013-02-15 02:41:00,17.0,11.0,-100.00,West,264,21.0,28.0,79,0.00,,,-99.99,,2013-02-15 09:41:00,
2013-02-15 02:51:00,17.0,11.0,-100.00,West,264,21.0,29.0,79,0.00,,,-99.99,,2013-02-15 09:51:00,
2013-02-15 03:01:00,17.0,11.0,-100.00,West,264,20.0,27.0,79,0.00,,,-99.99,,2013-02-15 10:01:00,
2013-02-15 03:11:00,17.0,11.0,-100.00,West,270,20.0,33.0,79,0.00,,,-99.99,,2013-02-15 10:11:00,
2013-02-15 03:21:00,17.0,11.0,-100.00,West,267,21.0,28.0,79,0.00,,,-99.99,,2013-02-15 10:21:00,
2013-02-15 03:31:00,17.0,11.0,-100.00,West,267,19.0,26.0,80,0.00,,,-99.99,,2013-02-15 10:31:00,
2013-02-15 03:41:00,16.0,11.0,-100.00,West,270,17.0,24.0,81,0.00,,,-99.99,,2013-02-15 10:41:00,
2013-02-15 03:51:00,16.0,12.0,-100.00,West,272,18.0,26.0,83,0.01,,,-99.99,,2013-02-15 10:51:00,
2013-02-15 04:01:00,16.0,12.0,-100.00,West,271,20.0,30.0,86,0.04,,,-99.99,,2013-02-15 11:01:00,
2013-02-15 04:11:00,16.0,12.0,-100.00,West,272,19.0,30.0,86,0.06,,,-99.99,,2013-02-15 11:11:00,
2013-02-15 04:22:00,16.0,12.0,-100.00,West,272,19.0,26.0,87,0.03,,,-99.99,,2013-02-15 11:22:00,
2013-02-15 04:32:00,15.0,12.0,-100.00,West,268,19.0,27.0,87,0.01,,,-99.99,,2013-02-15 11:32:00,
2013-02-15 04:42:00,15.0,12.0,-100.00,West,268,19.0,27.0,86,0.01,,,-99.99,,2013-02-15 11:42:00,
2013-02-15 04:52:00,16.0,12.0,-100.00,West,270,19.0,26.0,84,0.00,,,-99.99,,2013-02-15 11:52:00,
2013-02-15 05:02:00,16.0,12.0,-100.00,West,268,19.0,24.0,86,0.00,,,-99.99,,2013-02-15 12:02:00,
2013-02-15 05:11:00,16.0,12.0,-100.00,West,265,20.0,26.0,84,0.00,,,-99.99,,2013-02-15 12:11:00,
2013-02-15 05:21:00,16.0,12.0,-100.00,West,268,19.0,24.0,84,0.00,,,-99.99,,2013-02-15 12:21:00,
2013-02-15 05:32:00,16.0,12.0,-100.00,West,264,20.0,28.0,84,0.00,,,-99.99,,2013-02-15 12:32:00,
2013-02-15 05:42:00,16.0,11.0,-100.00,West,263,21.0,29.0,81,0.00,,,-99.99,,2013-02-15 12:42:00,
2013-02-15 05:52:00,16.0,11.0,-100.00,West,268,19.0,25.0,82,0.00,,,-99.99,,2013-02-15 12:52:00,
2013-02-15 06:02:00,16.0,11.0,-100.00,West,275,17.0,24.0,81,0.00,,,-99.99,,2013-02-15 13:02:00,
2013-02-15 06:11:00,16.0,12.0,-100.00,West,278,16.0,21.0,85,0.01,,,-99.99,,2013-02-15 13:11:00,
2013-02-15 06:21:00,16.0,12.0,-100.00,West,281,17.0,22.0,86,0.01,,,-99.99,,2013-02-15 13:21:00,
2013-02-15 06:32:00,16.0,13.0,-100.00,WNW,282,17.0,24.0,87,0.00,,,-99.99,,2013-02-15 13:32:00,
2013-02-15 06:41:00,15.0,13.0,-100.00,WNW,282,17.0,24.0,88,0.00,,,-99.99,,2013-02-15 13:41:00,
2013-02-15 06:52:00,15.0,12.0,-100.00,West,281,16.0,22.0,88,0.00,,,-99.99,,2013-02-15 13:52:00,
2013-02-15 07:01:00,15.0,12.0,-100.00,West,280,17.0,25.0,87,0.01,,,-99.99,,2013-02-15 14:01:00,
2013-02-15 07:11:00,15.0,12.0,-100.00,WNW,284,17.0,24.0,87,0.00,,,-99.99,,2013-02-15 14:11:00,
2013-02-15 07:21:00,15.0,12.0,-100.00,WNW,282,16.0,22.0,88,0.01,,,-99.99,,2013-02-15 14:21:00,
2013-02-15 07:32:00,15.0,12.0,-100.00,West,275,17.0,24.0,88,0.03,,,-99.99,,2013-02-15 14:32:00,
2013-02-15 07:41:00,15.0,12.0,-100.00,West,274,17.0,24.0,86,0.00,,,-99.99,,2013-02-15 14:41:00,
2013-02-15 07:52:00,15.0,11.0,-100.00,West,272,17.0,24.0,84,0.00,,,-99.99,,2013-02-15 14:52:00,
2013-02-15 08:01:00,15.0,11.0,-100.00,West,270,19.0,24.0,83,0.00,,,-99.99,,2013-02-15 15:01:00,
2013-02-15 08:11:00,16.0,10.0,-100.00,West,278,19.0,28.0,76,0.00,,,-99.99,,2013-02-15 15:11:00,
2013-02-15 08:21:00,16.0,9.0,-100.00,WNW,285,19.0,26.0,74,0.00,,,-99.99,,2013-02-15 15:21:00,
2013-02-15 08:32:00,17.0,9.0,-100.00,West,280,19.0,26.0,72,0.00,,,-99.99,,2013-02-15 15:32:00,
2013-02-15 08:42:00,17.0,10.0,-100.00,WNW,282,19.0,26.0,74,0.00,,,-99.99,,2013-02-15 15:42:00,
2013-02-15 08:51:00,17.0,10.0,-100.00,West,277,21.0,30.0,74,0.00,,,-99.99,,2013-02-15 15:51:00,
2013-02-15 09:01:00,17.0,10.0,-100.00,West,278,22.0,30.0,76,0.00,,,-99.99,,2013-02-15 16:01:00,
2013-02-15 09:11:00,17.0,11.0,-100.00,WNW,282,21.0,31.0,76,0.00,,,-99.99,,2013-02-15 16:11:00,
2013-02-15 09:22:00,17.0,11.0,-100.00,WNW,282,21.0,29.0,77,0.00,,,-99.99,,2013-02-15 16:22:00,
2013-02-15 09:32:00,17.0,11.0,-100.00,WNW,284,22.0,31.0,77,0.00,,,-99.99,,2013-02-15 16:32:00,
2013-02-15 09:42:00,17.0,10.0,-100.00,WNW,285,22.0,28.0,73,0.00,,,-99.99,,2013-02-15 16:42:00,
2013-02-15 09:51:00,17.0,10.0,-100.00,WNW,287,23.0,30.0,73,0.00,,,-99.99,,2013-02-15 16:51:00,
2013-02-15 10:01:00,17.0,10.0,-100.00,West,281,22.0,31.0,74,0.00,,,-99.99,,2013-02-15 17:01:00,
2013-02-15 10:11:00,17.0,10.0,-100.00,WNW,285,22.0,29.0,74,0.00,,,-99.99,,2013-02-15 17:11:00,
2013-02-15 10:21:00,17.0,11.0,-100.00,WNW,285,26.0,34.0,77,0.00,,,-99.99,,2013-02-15 17:21:00,
2013-02-15 10:32:00,17.0,11.0,-100.00,WNW,287,24.0,32.0,76,0.00,,,-99.99,,2013-02-15 17:32:00,
2013-02-15 10:52:00,18.0,11.0,-100.00,WNW,292,25.0,32.0,75,0.00,,,-99.99,,2013-02-15 17:52:00,
2013-02-15 11:01:00,18.0,11.0,-100.00,WNW,289,24.0,32.0,74,0.00,,,-99.99,,2013-02-15 18:01:00,
2013-02-15 11:11:00,18.0,11.0,-100.00,WNW,285,24.0,32.0,73,0.00,,,-99.99,,2013-02-15 18:11:00,
2013-02-15 11:21:00,18.0,11.0,-100.00,WNW,289,26.0,34.0,72,0.00,,,-99.99,,2013-02-15 18:21:00,
2013-02-15 11:32:00,19.0,11.0,-100.00,WNW,289,24.0,30.0,71,0.00,,,-99.99,,2013-02-15 18:32:00,
2013-02-15 11:41:00,19.0,11.0,-100.00,WNW,289,26.0,34.0,71,0.00,,,-99.99,,2013-02-15 18:41:00,
2013-02-15 11:52:00,19.0,11.0,-100.00,WNW,292,26.0,32.0,71,0.00,,,-99.99,,2013-02-15 18:52:00,
2013-02-15 12:01:00,19.0,12.0,-100.00,WNW,292,26.0,33.0,73,0.00,,,-99.99,,2013-02-15 19:01:00,
2013-02-15 12:11:00,18.0,12.0,-100.00,WNW,289,26.0,35.0,74,0.00,,,-99.99,,2013-02-15 19:11:00,
2013-02-15 12:22:00,19.0,12.0,-100.00,WNW,298,26.0,35.0,76,0.00,,,-99.99,,2013-02-15 19:22:00,
2013-02-15 12:32:00,19.0,12.0,-100.00,WNW,301,28.0,38.0,76,0.00,,,-99.99,,2013-02-15 19:32:00,
2013-02-15 12:41:00,19.0,13.0,-100.00,WNW,299,27.0,35.0,75,0.00,,,-99.99,,2013-02-15 19:41:00,
2013-02-15 12:51:00,19.0,13.0,-100.00,WNW,301,30.0,37.0,74,0.00,,,-99.99,,2013-02-15 19:51:00,
2013-02-15 13:01:00,20.0,14.0,-100.00,WNW,301,29.0,35.0,77,0.00,,,-99.99,,2013-02-15 20:01:00,
2013-02-15 13:11:00,20.0,13.0,-100.00,WNW,298,29.0,37.0,74,0.00,,,-99.99,,2013-02-15 20:11:00,
2013-02-15 13:21:00,20.0,13.0,-100.00,WNW,295,24.0,31.0,73,0.00,,,-99.99,,2013-02-15 20:21:00,
2013-02-15 13:32:00,20.0,12.0,-100.00,WNW,296,24.0,32.0,70,0.00,,,-99.99,,2013-02-15 20:32:00,
2013-02-15 13:42:00,20.0,11.0,-100.00,WNW,295,26.0,32.0,70,0.00,,,-99.99,,2013-02-15 20:42:00,
2013-02-15 13:52:00,21.0,11.0,-100.00,WNW,294,24.0,37.0,67,0.00,,,-99.99,,2013-02-15 20:52:00,
2013-02-15 14:01:00,21.0,13.0,-100.00,WNW,292,26.0,34.0,71,0.00,,,-99.99,,2013-02-15 21:01:00,
2013-02-15 14:11:00,21.0,12.0,-100.00,WNW,294,25.0,33.0,70,0.00,,,-99.99,,2013-02-15 21:11:00,
2013-02-15 14:21:00,20.0,14.0,-100.00,WNW,291,23.0,30.0,76,0.00,,,-99.99,,2013-02-15 21:21:00,
2013-02-15 14:31:00,20.0,14.0,-100.00,WNW,285,21.0,27.0,76,0.00,,,-99.99,,2013-02-15 21:31:00,
2013-02-15 14:42:00,21.0,15.0,-100.00,West,280,24.0,31.0,79,0.00,,,-99.99,,2013-02-15 21:42:00,
2013-02-15 14:51:00,20.0,14.0,-100.00,West,281,23.0,33.0,76,0.00,,,-99.99,,2013-02-15 21:51:00,
2013-02-15 15:02:00,20.0,15.0,-100.00,WNW,284,24.0,34.0,78,0.00,,,-99.99,,2013-02-15 22:02:00,
2013-02-15 15:11:00,21.0,14.0,-100.00,WNW,284,23.0,36.0,75,0.00,,,-99.99,,2013-02-15 22:11:00,
2013-02-15 15:21:00,21.0,14.0,-100.00,West,281,23.0,35.0,75,0.00,,,-99.99,,2013-02-15 22:21:00,
2013-02-15 15:31:00,21.0,15.0,-100.00,West,281,22.0,32.0,77,0.00,,,-99.99,,2013-02-15 22:31:00,
2013-02-15 15:41:00,21.0,15.0,-100.00,West,277,20.0,27.0,77,0.00,,,-99.99,,2013-02-15 22:41:00,
2013-02-15 15:51:00,20.0,13.0,-100.00,West,271,24.0,34.0,73,0.00,,,-99.99,,2013-02-15 22:51:00,
2013-02-15 16:02:00,20.0,12.0,-100.00,West,270,26.0,37.0,70,0.00,,,-99.99,,2013-02-15 23:02:00,
2013-02-15 16:11:00,20.0,12.0,-100.00,West,271,26.0,35.0,69,0.00,,,-99.99,,2013-02-15 23:11:00,
2013-02-15 16:21:00,20.0,12.0,-100.00,West,270,29.0,41.0,71,0.00,,,-99.99,,2013-02-15 23:21:00,
2013-02-15 16:31:00,21.0,11.0,-100.00,West,264,30.0,45.0,66,0.00,,,-99.99,,2013-02-15 23:31:00,
2013-02-15 16:42:00,20.0,12.0,-100.00,West,263,29.0,38.0,69,0.00,,,-99.99,,2013-02-15 23:42:00,
2013-02-15 16:52:00,20.0,11.0,-100.00,West,260,26.0,38.0,67,0.00,,,-99.99,,2013-02-15 23:52:00,
2013-02-15 17:02:00,20.0,12.0,-100.00,WSW,258,29.0,39.0,70,0.00,,,-99.99,,2013-02-16 00:02:00,
2013-02-15 17:11:00,20.0,13.0,-100.00,West,260,31.0,42.0,72,0.00,,,-99.99,,2013-02-16 00:11:00,
2013-02-15 17:21:00,20.0,13.0,-100.00,WSW,257,31.0,40.0,73,0.00,,,-99.99,,2013-02-16 00:21:00,
2013-02-15 17:32:00,20.0,14.0,-100.00,WSW,254,29.0,42.0,75,0.00,,,-99.99,,2013-02-16 00:32:00,
2013-02-15 17:41:00,21.0,13.0,-100.00,WSW,254,31.0,43.0,73,0.00,,,-99.99,,2013-02-16 00:41:00,
2013-02-15 17:51:00,21.0,15.0,-100.00,WSW,256,30.0,42.0,78,0.01,,,-99.99,,2013-02-16 00:51:00,
2013-02-15 18:02:00,21.0,15.0,-100.00,WSW,256,34.0,45.0,79,0.01,,,-99.99,,2013-02-16 01:02:00,
2013-02-15 18:11:00,21.0,16.0,-100.00,WSW,254,34.0,48.0,81,0.01,,,-99.99,,2013-02-16 01:11:00,
2013-02-15 18:21:00,21.0,17.0,-100.00,WSW,251,37.0,52.0,83,0.01,,,-99.99,,2013-02-16 01:21:00,
2013-02-15 18:32:00,21.0,16.0,-100.00,WSW,253,37.0,51.0,79,0.00,,,-99.99,,2013-02-16 01:32:00,
2013-02-15 18:41:00,22.0,16.0,-100.00,WSW,253,36.0,44.0,78,0.01,,,-99.99,,2013-02-16 01:41:00,
2013-02-15 18:51:00,22.0,15.0,-100.00,WSW,253,35.0,46.0,76,0.00,,,-99.99,,2013-02-16 01:51:00,
2013-02-15 19:01:00,22.0,16.0,-100.00,WSW,251,35.0,46.0,75,0.00,,,-99.99,,2013-02-16 02:01:00,
2013-02-15 19:11:00,22.0,16.0,-100.00,WSW,254,35.0,47.0,76,0.00,,,-99.99,,2013-02-16 02:11:00,
2013-02-15 19:21:00,22.0,16.0,-100.00,WSW,253,35.0,46.0,75,0.00,,,-99.99,,2013-02-16 02:21:00,
2013-02-15 19:31:00,23.0,15.0,-100.00,WSW,251,34.0,45.0,73,0.00,,,-99.99,,2013-02-16 02:31:00,
2013-02-15 19:42:00,23.0,16.0,-100.00,WSW,254,35.0,45.0,75,0.00,,,-99.99,,2013-02-16 02:42:00,
2013-02-15 19:52:00,23.0,16.0,-100.00,WSW,254,34.0,48.0,74,0.00,,,-99.99,,2013-02-16 02:52:00,
2013-02-15 20:01:00,23.0,16.0,-100.00,WSW,256,32.0,46.0,72,0.00,,,-99.99,,2013-02-16 03:01:00,
2013-02-15 20:11:00,24.0,16.0,-100.00,WSW,256,35.0,50.0,72,0.00,,,-99.99,,2013-02-16 03:11:00,
2013-02-15 20:21:00,23.0,16.0,-100.00,WSW,257,31.0,44.0,73,0.00,,,-99.99,,2013-02-16 03:21:00,
2013-02-15 20:32:00,24.0,17.0,-100.00,WSW,256,33.0,45.0,74,0.00,,,-99.99,,2013-02-16 03:32:00,
2013-02-15 20:41:00,24.0,16.0,-100.00,WSW,258,34.0,49.0,74,0.00,,,-99.99,,2013-02-16 03:41:00,
2013-02-15 20:52:00,24.0,16.0,-100.00,WSW,257,35.0,49.0,71,0.00,,,-99.99,,2013-02-16 03:52:00,
2013-02-15 21:01:00,24.0,16.0,-100.00,WSW,257,34.0,46.0,70,0.00,,,-99.99,,2013-02-16 04:01:00,
2013-02-15 21:11:00,24.0,16.0,-100.00,WSW,256,36.0,44.0,71,0.00,,,-99.99,,2013-02-16 04:11:00,
2013-02-15 21:21:00,24.0,17.0,-100.00,WSW,258,37.0,53.0,73,0.00,,,-99.99,,2013-02-16 04:21:00,
2013-02-15 21:32:00,24.0,16.0,-100.00,WSW,258,32.0,43.0,73,0.00,,,-99.99,,2013-02-16 04:32:00,
2013-02-15 21:41:00,24.0,15.0,-100.00,WSW,256,33.0,44.0,71,0.00,,,-99.99,,2013-02-16 04:41:00,
2013-02-15 21:51:00,24.0,16.0,-100.00,WSW,253,34.0,44.0,72,0.00,,,-99.99,,2013-02-16 04:51:00,
2013-02-15 22:01:00,24.0,16.0,-100.00,WSW,248,35.0,45.0,70,0.00,,,-99.99,,2013-02-16 05:01:00,
2013-02-15 22:12:00,24.0,15.0,-100.00,WSW,253,33.0,43.0,70,0.00,,,-99.99,,2013-02-16 05:12:00,
2013-02-15 22:21:00,24.0,15.0,-100.00,WSW,253,33.0,47.0,68,0.00,,,-99.99,,2013-02-16 05:21:00,
2013-02-15 22:32:00,24.0,16.0,-100.00,WSW,256,34.0,43.0,71,0.00,,,-99.99,,2013-02-16 05:32:00,
2013-02-15 22:42:00,24.0,15.0,-100.00,WSW,251,32.0,47.0,70,0.00,,,-99.99,,2013-02-16 05:42:00,
2013-02-15 22:52:00,24.0,15.0,-100.00,WSW,254,33.0,45.0,69,0.00,,,-99.99,,2013-02-16 05:52:00,
2013-02-15 23:02:00,24.0,16.0,-100.00,WSW,254,34.0,42.0,70,0.00,,,-99.99,,2013-02-16 06:02:00,
2013-02-15 23:11:00,24.0,16.0,-100.00,WSW,254,36.0,47.0,70,0.00,,,-99.99,,2013-02-16 06:11:00,
2013-02-15 23:21:00,24.0,16.0,-100.00,WSW,254,37.0,46.0,71,0.00,,,-99.99,,2013-02-16 06:21:00,
2013-02-15 23:32:00,24.0,16.0,-100.00,WSW,253,37.0,48.0,71,0.00,,,-99.99,,2013-02-16 06:32:00,
2013-02-15 23:42:00,24.0,16.0,-100.00,WSW,253,35.0,46.0,71,0.00,,,-99.99,,2013-02-16 06:42:00,
2013-02-15 23:51:00,24.0,16.0,-100.00,WSW,250,37.0,47.0,72,0.00,,,-99.99,,2013-02-16 06:51:00,